Lethbridge County Airport
CYQL : now visible

Airfield :











YOU CAN JOIN US ON...

 
LOGIN :

Register | Disclaimer

   EN    FR    IT 

 









Legend :    VFR   Marginal VFR   IFR   Intensive IFR   Very Intensive IFR
Visi :
Ceiling :
>= 8 km
>= 3000ft
5 to 8 km
1000 to 3000 ft
1500m to 5 km
500 to 1000 ft
800 to 1500m
200 to 500 ft
< 800m
< 200 ft
Symbols :   Thunderstorms  Fog  Heavy snow  Heavy precipitations  Wind > 20 kt






- Airport Elevation : 3047 ft
- IATA code : YQL


CYQL - Lethbridge County

CURRENT METAR :
  • 070900Z AUTO 12004KT 9SM SCT130 08/01 A2985 RMK SLP110

EXPIRED METARs :
  • 070817Z AUTO VRB06KT 9SM FEW071 SCT092 SCT140 09/01 A2987 RMK PRESFR SLP131 DENSITY ALT 3100FT
  • 070800Z AUTO 10006KT 090V170 9SM -RA FEW071 SCT088 OVC120 08/01 A2989 RMK PRESFR SLP126
  • 070756Z AUTO 12007KT 110V230 9SM -RA FEW071 SCT100 OVC120 08/00 A2990 RMK PRESFR SLP140 DENSITY ALT 3100FT
  • 070700Z AUTO 14011G16KT 9SM FEW180 10/M01 A2988 RMK SLP123 DENSITY ALT 3200FT

TAF AMD TAF CYQL
Valid from the 07 at 08:00 until the 07 at 18:00 UTC


070819Z 0708/0718 12008KT P6SM FEW070 BKN120
TEMPO 0708/0715 P6SM -SHRA BKN070
FM071500 24015KT P6SM FEW050 BKN120
TEMPO 0715/0718 P6SM -SHRA BKN050 OVC100 RMK FCST BASED ON AUTO OBS. NXT FCST BY 071200Z
CZEG FIR / North America



MET'MAP, your aeronautical weather chart ! - Copyright ORBIFLY December 2007 - Disclaimer

ORBIFLY MET'MAP TEAM :

Programming & Development : Alexandra Zaïnal
Concept & original design : Baudouin d'Aumeries
Assistance for programming : Marc-Olivier Méhu
Technical & hardware support : Manuel Goepfert

Contact : metmap@orbifly.com




SOURCES & CREDITS :

   NOAA       Earth
Advisory